Time;durP1;ratioP1;P1;durP2;ratioP2;P2;SDS_P1;SDS_P2;PMS_P1;PMS_P2;Temp;Humidity;BMP_temperature;BMP_pressure;BME280_temperature;BME280_humidity;BME280_pressure;Samples;Min_cycle;Max_cycle;Signal;HPM_P1;HPM_P2
2023/12/28 00:02:09;;;;;;;2.00;1.70;;;9.00;99.90;;;;;;5040569;28;20341;-72
2023/12/28 00:04:36;;;;;;;7.18;2.75;;;9.00;99.90;;;;;;5033465;28;20192;-70
2023/12/28 00:07:05;;;;;;;2.72;2.47;;;8.90;99.90;;;;;;5028597;28;20224;-73
2023/12/28 00:09:32;;;;;;;3.28;2.65;;;8.90;99.90;;;;;;5034740;28;20251;-71
2023/12/28 00:11:59;;;;;;;5.28;3.13;;;8.80;99.90;;;;;;5031170;28;20232;-70
2023/12/28 00:14:26;;;;;;;6.80;3.13;;;8.80;99.90;;;;;;5033121;28;20235;-70
2023/12/28 00:16:53;;;;;;;4.22;3.03;;;8.80;99.90;;;;;;5031657;28;20216;-72
2023/12/28 00:19:20;;;;;;;4.18;2.60;;;8.80;99.90;;;;;;5019482;28;20312;-70
2023/12/28 00:21:47;;;;;;;3.25;2.70;;;8.80;99.90;;;;;;5036804;28;20280;-71
2023/12/28 00:24:17;;;;;;;4.55;2.65;;;8.80;99.90;;;;;;5027878;28;20566;-71
2023/12/28 00:26:44;;;;;;;4.65;2.70;;;8.90;99.90;;;;;;5033001;28;20224;-72
2023/12/28 00:29:11;;;;;;;4.13;2.25;;;8.90;99.90;;;;;;5029864;28;20279;-70
2023/12/28 00:31:38;;;;;;;4.13;2.55;;;8.90;99.90;;;;;;5027620;28;20212;-71
2023/12/28 00:34:05;;;;;;;4.30;2.83;;;8.90;99.90;;;;;;5034661;28;20197;-72
2023/12/28 00:36:32;;;;;;;3.30;2.60;;;8.90;99.90;;;;;;5025827;28;20340;-70
2023/12/28 00:38:59;;;;;;;7.18;2.85;;;8.90;99.90;;;;;;5031552;28;20228;-72
2023/12/28 00:41:27;;;;;;;4.05;2.90;;;9.00;99.90;;;;;;5024929;28;20237;-71
2023/12/28 00:43:54;;;;;;;9.15;2.95;;;9.00;99.90;;;;;;5039372;28;20262;-70
2023/12/28 00:46:21;;;;;;;3.50;2.90;;;9.00;99.90;;;;;;5023846;28;20204;-69
2023/12/28 00:48:48;;;;;;;4.30;3.20;;;9.00;99.90;;;;;;5035391;28;20205;-71
2023/12/28 00:51:15;;;;;;;3.72;2.50;;;9.00;99.90;;;;;;5033969;28;20659;-70
2023/12/28 00:53:42;;;;;;;5.60;3.30;;;9.00;99.90;;;;;;5041611;28;20594;-72
2023/12/28 00:56:10;;;;;;;5.22;3.25;;;9.00;99.90;;;;;;5033502;28;20660;-70
2023/12/28 00:58:43;;;;;;;6.20;2.97;;;9.00;99.90;;;;;;5029417;28;20241;-69
2023/12/28 01:01:10;;;;;;;3.95;3.10;;;9.00;99.90;;;;;;5027939;28;20205;-69
2023/12/28 01:03:37;;;;;;;8.82;3.20;;;9.00;99.90;;;;;;5036148;28;20260;-70
2023/12/28 01:06:05;;;;;;;3.78;2.88;;;9.00;99.90;;;;;;5027959;28;20201;-72
2023/12/28 01:08:33;;;;;;;10.63;3.95;;;9.00;99.90;;;;;;5021126;28;20248;-71
2023/12/28 01:11:00;;;;;;;4.47;2.67;;;9.00;99.90;;;;;;5029035;28;20295;-72
2023/12/28 01:13:28;;;;;;;3.65;2.97;;;9.00;99.90;;;;;;5029978;28;20314;-73
2023/12/28 01:15:56;;;;;;;4.35;3.80;;;9.00;99.90;;;;;;5022065;28;20684;-70
2023/12/28 01:18:23;;;;;;;8.48;3.75;;;9.10;99.90;;;;;;5031771;28;20741;-70
2023/12/28 01:20:50;;;;;;;3.95;2.53;;;9.10;99.90;;;;;;5026397;28;20294;-70
2023/12/28 01:23:17;;;;;;;3.90;2.80;;;9.10;99.90;;;;;;5030671;28;20197;-72
2023/12/28 01:25:44;;;;;;;3.10;2.78;;;9.10;99.90;;;;;;5030538;28;20228;-70
2023/12/28 01:28:11;;;;;;;3.92;3.42;;;9.20;99.90;;;;;;5031098;28;20318;-73
2023/12/28 01:30:38;;;;;;;7.68;2.80;;;9.20;99.90;;;;;;5029675;28;20240;-69
2023/12/28 01:33:06;;;;;;;4.53;3.15;;;9.10;99.90;;;;;;5033201;28;20205;-71
2023/12/28 01:35:33;;;;;;;4.95;3.40;;;9.10;99.90;;;;;;5032092;28;20269;-70
2023/12/28 01:38:01;;;;;;;4.38;3.10;;;9.10;99.90;;;;;;5029988;28;20216;-72
2023/12/28 01:40:28;;;;;;;4.95;4.45;;;9.10;99.90;;;;;;5029462;28;20204;-70
2023/12/28 01:42:55;;;;;;;4.13;2.50;;;9.20;99.90;;;;;;5043507;28;20205;-70
2023/12/28 01:45:22;;;;;;;3.47;3.00;;;9.20;99.90;;;;;;5033111;28;20247;-70
2023/12/28 01:47:50;;;;;;;3.70;3.33;;;9.30;99.90;;;;;;5033263;28;20294;-71
2023/12/28 01:50:19;;;;;;;3.63;2.80;;;9.30;99.90;;;;;;5025527;28;20202;-71
2023/12/28 01:52:47;;;;;;;4.13;3.30;;;9.30;99.90;;;;;;5026516;28;20667;-71
2023/12/28 01:55:14;;;;;;;4.45;3.22;;;9.30;99.90;;;;;;5029716;28;20263;-73
2023/12/28 01:57:41;;;;;;;3.65;3.00;;;9.40;99.90;;;;;;5030802;28;20279;-72
2023/12/28 02:00:09;;;;;;;4.45;3.00;;;9.40;99.90;;;;;;5029628;28;20749;-71
2023/12/28 02:02:37;;;;;;;3.95;3.30;;;9.30;99.90;;;;;;5037686;28;20200;-72
2023/12/28 02:05:04;;;;;;;7.00;3.20;;;9.30;99.90;;;;;;5031127;28;20201;-72
2023/12/28 02:10:00;;;;;;;3.95;3.00;;;9.30;99.90;;;;;;5031461;28;20308;-73
2023/12/28 02:12:27;;;;;;;5.57;3.28;;;9.30;99.90;;;;;;5035175;28;20226;-71
2023/12/28 02:14:54;;;;;;;3.42;3.08;;;9.20;99.90;;;;;;5031768;28;20221;-72
2023/12/28 02:17:27;;;;;;;3.20;2.85;;;9.20;99.90;;;;;;5032106;28;20221;-70
2023/12/28 02:19:56;;;;;;;4.53;2.92;;;9.20;99.90;;;;;;5025535;28;20579;-71
2023/12/28 02:22:26;;;;;;;7.13;3.90;;;9.20;99.90;;;;;;5029021;28;20240;-72
2023/12/28 02:25:03;;;;;;;4.47;3.45;;;9.20;99.90;;;;;;5025975;28;20200;-70
2023/12/28 02:27:30;;;;;;;5.45;3.25;;;9.20;99.90;;;;;;5028716;28;20256;-69
2023/12/28 02:29:58;;;;;;;4.15;3.10;;;9.20;99.90;;;;;;5030338;28;20733;-72
2023/12/28 02:32:36;;;;;;;9.38;3.90;;;9.30;99.90;;;;;;5032896;28;20254;-72
2023/12/28 02:35:16;;;;;;;3.97;3.30;;;9.30;99.90;;;;;;5009252;28;20294;-70
2023/12/28 02:37:45;;;;;;;5.25;3.08;;;9.30;99.90;;;;;;5007997;28;20233;-72
2023/12/28 02:40:16;;;;;;;6.15;3.80;;;9.30;99.90;;;;;;5028261;28;20754;-73
2023/12/28 02:42:43;;;;;;;3.97;3.58;;;9.30;99.90;;;;;;5034254;28;20205;-73
2023/12/28 02:45:10;;;;;;;3.65;2.95;;;9.30;99.90;;;;;;5029100;28;20200;-73
2023/12/28 02:47:37;;;;;;;5.10;3.60;;;9.20;99.90;;;;;;5025312;28;20315;-72
2023/12/28 02:50:07;;;;;;;6.63;3.83;;;9.20;99.90;;;;;;5032976;28;20240;-71
2023/12/28 02:52:34;;;;;;;3.33;3.03;;;9.20;99.90;;;;;;5032193;28;20232;-72
2023/12/28 02:55:01;;;;;;;4.32;3.85;;;9.10;99.90;;;;;;5031365;28;20212;-71
2023/12/28 02:57:29;;;;;;;3.95;3.13;;;9.10;99.90;;;;;;5032461;28;20216;-70
2023/12/28 02:59:56;;;;;;;6.95;3.90;;;9.20;99.90;;;;;;5026798;28;20204;-71
2023/12/28 03:02:24;;;;;;;7.32;4.10;;;9.10;99.90;;;;;;5033210;28;20278;-71
2023/12/28 03:04:51;;;;;;;6.60;4.30;;;9.10;99.90;;;;;;5032965;28;20745;-71
2023/12/28 03:07:18;;;;;;;5.32;3.10;;;9.20;99.90;;;;;;5022316;28;20279;-73
2023/12/28 03:09:46;;;;;;;6.68;4.82;;;9.20;99.90;;;;;;5031095;28;20212;-72
2023/12/28 03:12:13;;;;;;;6.07;3.45;;;9.20;99.90;;;;;;5025146;28;20250;-69
2023/12/28 03:14:42;;;;;;;4.63;3.83;;;9.20;99.90;;;;;;5021048;28;20578;-69
2023/12/28 03:17:09;;;;;;;7.38;3.13;;;9.10;99.90;;;;;;5027259;28;20735;-70
2023/12/28 03:19:37;;;;;;;5.60;3.80;;;9.20;99.90;;;;;;5031264;28;20203;-70
2023/12/28 03:22:04;;;;;;;4.50;3.13;;;9.10;99.90;;;;;;5025789;28;20205;-73
2023/12/28 03:24:31;;;;;;;4.55;3.22;;;9.20;99.90;;;;;;5029288;28;20201;-70
2023/12/28 03:26:58;;;;;;;5.75;3.80;;;9.10;99.90;;;;;;5030861;28;20216;-73
2023/12/28 03:29:26;;;;;;;4.70;3.67;;;9.20;99.90;;;;;;5032329;28;20258;-70
2023/12/28 03:31:54;;;;;;;4.65;2.78;;;9.20;99.90;;;;;;5032516;28;20212;-72
2023/12/28 03:34:22;;;;;;;6.10;3.05;;;9.20;99.90;;;;;;5023144;28;20573;-72
2023/12/28 03:36:49;;;;;;;3.30;3.00;;;9.20;99.90;;;;;;5030157;28;20227;-71
2023/12/28 03:39:16;;;;;;;5.93;2.67;;;9.20;99.90;;;;;;5038985;28;20196;-72
2023/12/28 03:41:43;;;;;;;3.95;2.80;;;9.20;99.90;;;;;;5032418;28;20212;-72
2023/12/28 03:44:10;;;;;;;3.75;3.45;;;9.20;99.90;;;;;;5034840;28;20208;-71
2023/12/28 03:46:43;;;;;;;3.70;3.13;;;9.20;99.90;;;;;;5033351;28;20266;-71
2023/12/28 03:49:11;;;;;;;3.50;2.70;;;9.20;99.90;;;;;;5032328;28;20232;-70
2023/12/28 03:51:38;;;;;;;5.45;3.40;;;9.20;99.90;;;;;;5032442;28;20205;-72
2023/12/28 03:54:05;;;;;;;5.22;3.47;;;9.20;99.90;;;;;;5038975;28;20566;-72
2023/12/28 03:56:32;;;;;;;5.13;2.95;;;9.20;99.90;;;;;;5029800;28;20220;-72
2023/12/28 03:58:59;;;;;;;3.58;3.28;;;9.20;99.90;;;;;;5032157;28;20239;-72
2023/12/28 04:01:26;;;;;;;4.35;3.20;;;9.20;99.90;;;;;;5031995;28;20205;-72
2023/12/28 04:03:54;;;;;;;11.05;5.80;;;9.20;99.90;;;;;;5035165;28;20236;-70
2023/12/28 04:06:22;;;;;;;3.55;3.15;;;9.30;99.90;;;;;;5032494;28;20612;-72
2023/12/28 04:08:49;;;;;;;6.38;4.78;;;9.30;99.90;;;;;;5037376;28;20647;-72
2023/12/28 04:11:16;;;;;;;5.80;4.03;;;9.30;99.90;;;;;;5032155;28;20281;-70
2023/12/28 04:13:43;;;;;;;4.47;3.88;;;9.30;99.90;;;;;;5035170;28;20259;-70
2023/12/28 04:16:13;;;;;;;4.03;3.58;;;9.30;99.90;;;;;;5027971;28;20220;-73
2023/12/28 04:18:40;;;;;;;5.32;3.90;;;9.20;99.90;;;;;;5025061;28;20251;-70
2023/12/28 04:21:09;;;;;;;7.68;4.13;;;9.30;99.90;;;;;;5018813;28;20320;-71
2023/12/28 04:23:39;;;;;;;6.15;3.45;;;9.20;99.90;;;;;;5026111;28;20239;-73
2023/12/28 04:26:06;;;;;;;5.38;2.72;;;9.20;99.90;;;;;;5024814;28;20201;-70
2023/12/28 04:28:34;;;;;;;5.82;3.17;;;9.20;99.90;;;;;;5031172;28;20252;-71
2023/12/28 04:31:03;;;;;;;5.65;3.35;;;9.20;99.90;;;;;;5022041;28;20228;-71
2023/12/28 04:33:31;;;;;;;5.70;3.72;;;9.20;99.90;;;;;;5026867;28;20710;-72
2023/12/28 04:35:58;;;;;;;3.88;3.45;;;9.20;99.90;;;;;;5025977;28;20638;-72
2023/12/28 04:38:25;;;;;;;5.63;3.38;;;9.20;99.90;;;;;;5021706;28;20217;-70
2023/12/28 04:40:53;;;;;;;4.68;3.95;;;9.20;99.90;;;;;;5030585;28;20270;-71
2023/12/28 04:43:23;;;;;;;7.13;4.18;;;9.20;99.90;;;;;;5029759;28;20201;-70
2023/12/28 04:45:50;;;;;;;5.35;3.75;;;9.20;99.90;;;;;;5026643;28;20223;-72
2023/12/28 04:48:20;;;;;;;6.22;3.75;;;9.20;99.90;;;;;;5031345;28;20617;-72
2023/12/28 04:50:48;;;;;;;7.40;5.80;;;9.20;99.90;;;;;;5034587;28;20204;-72
2023/12/28 04:53:15;;;;;;;3.30;3.10;;;9.20;99.90;;;;;;5036100;28;20755;-70
2023/12/28 04:55:42;;;;;;;3.13;2.75;;;9.20;99.90;;;;;;5035487;28;20228;-70
2023/12/28 04:58:12;;;;;;;5.28;4.55;;;9.20;99.90;;;;;;5030359;28;20734;-72
2023/12/28 05:00:39;;;;;;;5.53;4.00;;;9.20;99.90;;;;;;5032439;28;20545;-72
2023/12/28 05:03:06;;;;;;;7.97;4.00;;;9.20;99.90;;;;;;5037308;28;20204;-71
2023/12/28 05:05:33;;;;;;;9.73;3.92;;;9.20;99.90;;;;;;5034900;28;20213;-72
2023/12/28 05:08:00;;;;;;;4.45;3.45;;;9.30;99.90;;;;;;5027341;28;20224;-72
2023/12/28 05:10:27;;;;;;;8.07;3.70;;;9.30;99.90;;;;;;5034906;28;20286;-70
2023/12/28 05:12:54;;;;;;;6.25;3.40;;;9.30;99.90;;;;;;5038378;28;20239;-72
2023/12/28 05:15:22;;;;;;;5.00;3.45;;;9.30;99.90;;;;;;5034701;28;20270;-72
2023/12/28 05:17:50;;;;;;;3.97;3.50;;;9.20;99.90;;;;;;5027424;28;20283;-72
2023/12/28 05:20:18;;;;;;;5.35;3.30;;;9.30;99.90;;;;;;5032847;28;20200;-71
2023/12/28 05:22:45;;;;;;;5.55;3.35;;;9.30;99.90;;;;;;5034738;28;20205;-73
2023/12/28 05:25:12;;;;;;;6.50;3.67;;;9.30;99.90;;;;;;5035389;28;20267;-72
2023/12/28 05:27:39;;;;;;;9.02;3.95;;;9.30;99.90;;;;;;5032702;28;20224;-71
2023/12/28 05:30:08;;;;;;;4.85;3.45;;;9.20;99.90;;;;;;5035068;28;20205;-72
2023/12/28 05:32:37;;;;;;;6.20;3.92;;;9.20;99.90;;;;;;5033387;28;20641;-73
2023/12/28 05:35:04;;;;;;;11.13;5.20;;;9.20;99.90;;;;;;5034561;28;20211;-71
2023/12/28 05:37:31;;;;;;;6.47;4.15;;;9.20;99.90;;;;;;5033264;28;20255;-74
2023/12/28 05:39:58;;;;;;;5.25;3.50;;;9.20;99.90;;;;;;5034198;28;20302;-71
2023/12/28 05:42:25;;;;;;;5.70;3.50;;;9.20;99.90;;;;;;5034770;28;20281;-70
2023/12/28 05:44:52;;;;;;;7.68;3.97;;;9.20;99.90;;;;;;5034400;28;20211;-69
2023/12/28 05:47:19;;;;;;;3.65;3.30;;;9.20;99.90;;;;;;5033468;28;20289;-73
2023/12/28 05:49:47;;;;;;;4.43;3.40;;;9.20;99.90;;;;;;5024563;28;20237;-72
2023/12/28 05:52:16;;;;;;;6.32;4.65;;;9.20;99.90;;;;;;5030853;28;20240;-70
2023/12/28 05:54:44;;;;;;;5.30;3.90;;;9.20;99.90;;;;;;5027022;28;20220;-73
2023/12/28 05:57:11;;;;;;;5.65;3.65;;;9.30;99.90;;;;;;5030974;28;20311;-71
2023/12/28 05:59:40;;;;;;;7.65;3.72;;;9.30;99.90;;;;;;5027759;28;20254;-72
2023/12/28 06:02:07;;;;;;;3.72;3.17;;;9.30;99.90;;;;;;5033946;28;20295;-73
2023/12/28 06:04:35;;;;;;;5.32;3.15;;;9.30;99.90;;;;;;5037207;28;20258;-70
2023/12/28 06:07:04;;;;;;;6.15;3.92;;;9.40;99.90;;;;;;5025010;28;20287;-72
2023/12/28 06:09:33;;;;;;;4.82;3.05;;;9.40;99.90;;;;;;5031573;28;20651;-72
2023/12/28 06:12:00;;;;;;;5.63;3.17;;;9.40;99.90;;;;;;5027470;28;20240;-72
2023/12/28 06:14:27;;;;;;;4.60;3.47;;;9.40;99.90;;;;;;5035408;28;20304;-69
2023/12/28 06:16:54;;;;;;;9.73;4.22;;;9.40;99.90;;;;;;5032101;28;20267;-71
2023/12/28 06:19:21;;;;;;;7.70;3.72;;;9.50;99.90;;;;;;5028456;28;20205;-69
2023/12/28 06:21:48;;;;;;;5.70;2.85;;;9.60;99.90;;;;;;5031912;28;20610;-73
2023/12/28 06:24:17;;;;;;;7.38;2.92;;;9.70;99.90;;;;;;5031101;28;20198;-70
2023/12/28 06:26:45;;;;;;;5.10;2.90;;;9.70;99.90;;;;;;5029773;28;20224;-73
2023/12/28 06:29:12;;;;;;;6.82;3.50;;;9.70;99.90;;;;;;5019420;28;20286;-71
2023/12/28 06:31:39;;;;;;;7.45;4.07;;;9.70;99.90;;;;;;5024106;28;20205;-72
2023/12/28 06:34:06;;;;;;;4.78;3.00;;;9.80;99.90;;;;;;5033767;28;20201;-73
2023/12/28 06:36:34;;;;;;;8.90;4.35;;;9.80;99.90;;;;;;5023596;28;20312;-73
2023/12/28 06:39:01;;;;;;;8.63;3.55;;;9.80;99.90;;;;;;5021191;28;20324;-69
2023/12/28 06:41:29;;;;;;;5.97;2.90;;;9.90;99.90;;;;;;5028388;28;20205;-73
2023/12/28 06:43:56;;;;;;;6.18;3.55;;;10.00;99.90;;;;;;5024390;28;20201;-70
2023/12/28 06:46:23;;;;;;;10.15;4.03;;;10.00;99.90;;;;;;5028432;28;20228;-71
2023/12/28 06:48:50;;;;;;;11.15;4.50;;;10.10;99.90;;;;;;5025468;28;20279;-72
2023/12/28 06:51:21;;;;;;;7.40;3.35;;;10.10;99.90;;;;;;5031646;28;20200;-71
2023/12/28 06:53:49;;;;;;;6.57;3.13;;;10.10;99.90;;;;;;5027362;28;20288;-72
2023/12/28 06:56:16;;;;;;;12.10;3.72;;;10.10;99.90;;;;;;5025789;28;20304;-72
2023/12/28 06:58:45;;;;;;;6.30;2.80;;;10.20;99.90;;;;;;5029071;28;20267;-72
2023/12/28 07:01:12;;;;;;;10.90;3.88;;;10.20;99.90;;;;;;5027275;28;20594;-69
2023/12/28 07:03:39;;;;;;;10.95;3.35;;;10.20;99.90;;;;;;5032376;28;20259;-71
2023/12/28 07:06:06;;;;;;;8.30;3.80;;;10.30;99.90;;;;;;5027680;28;20620;-72
2023/12/28 07:08:33;;;;;;;6.65;2.60;;;10.30;99.90;;;;;;5028190;28;20271;-72
2023/12/28 07:11:00;;;;;;;8.88;3.42;;;10.30;99.90;;;;;;5027852;28;20197;-72
2023/12/28 07:13:27;;;;;;;9.95;2.95;;;10.30;99.90;;;;;;5028286;28;20200;-74
2023/12/28 07:15:56;;;;;;;14.43;5.22;;;10.40;99.90;;;;;;5026999;28;20205;-70
2023/12/28 07:18:23;;;;;;;7.20;2.45;;;10.50;99.90;;;;;;5024893;28;20220;-71
2023/12/28 07:20:49;;;;;;;6.55;3.30;;;10.50;99.90;;;;;;5027875;28;20239;-70
2023/12/28 07:23:17;;;;;;;7.20;3.42;;;10.50;99.90;;;;;;5031094;28;20236;-72
2023/12/28 07:25:44;;;;;;;5.47;2.55;;;10.50;99.90;;;;;;5029347;28;20213;-71
2023/12/28 07:28:11;;;;;;;10.88;2.50;;;10.60;99.90;;;;;;5026769;28;20245;-71
2023/12/28 07:30:38;;;;;;;7.35;3.50;;;10.60;99.90;;;;;;5031383;28;20259;-73
2023/12/28 07:33:07;;;;;;;11.90;3.00;;;10.70;99.90;;;;;;5037912;28;20250;-71
2023/12/28 07:35:34;;;;;;;8.25;2.90;;;10.70;99.90;;;;;;5024684;28;20235;-72
2023/12/28 07:38:01;;;;;;;7.70;2.97;;;10.70;99.90;;;;;;5027979;28;20232;-73
2023/12/28 07:40:28;;;;;;;15.43;3.13;;;10.80;99.90;;;;;;5026869;28;20254;-74
2023/12/28 07:42:56;;;;;;;10.60;3.35;;;10.80;99.90;;;;;;5032770;28;20230;-70
2023/12/28 07:45:24;;;;;;;7.35;2.40;;;10.80;99.90;;;;;;5027862;28;20205;-73
2023/12/28 07:47:51;;;;;;;12.85;3.90;;;10.80;99.90;;;;;;5021917;28;20621;-71
2023/12/28 07:50:20;;;;;;;8.85;2.50;;;10.80;99.90;;;;;;5028178;28;20209;-72
2023/12/28 07:52:48;;;;;;;5.68;2.53;;;10.90;99.90;;;;;;5024823;28;20208;-73
2023/12/28 07:55:15;;;;;;;6.47;2.97;;;10.90;99.90;;;;;;5032286;28;20204;-74
2023/12/28 07:57:42;;;;;;;7.22;2.72;;;11.00;99.90;;;;;;5030402;28;20250;-74
2023/12/28 08:00:10;;;;;;;8.82;2.50;;;10.90;99.90;;;;;;5029536;28;20218;-71
2023/12/28 08:02:37;;;;;;;7.90;2.90;;;11.00;99.90;;;;;;5029142;28;20205;-72
2023/12/28 08:05:05;;;;;;;7.40;3.22;;;11.10;99.90;;;;;;5024053;28;20275;-72
2023/12/28 08:07:33;;;;;;;10.18;2.33;;;11.10;99.90;;;;;;5030945;28;20223;-73
2023/12/28 08:10:00;;;;;;;18.52;4.55;;;11.10;99.90;;;;;;5031592;28;20247;-71
2023/12/28 08:12:28;;;;;;;10.50;2.60;;;11.20;99.90;;;;;;5032172;28;20205;-71
2023/12/28 08:14:56;;;;;;;6.68;3.65;;;11.10;99.90;;;;;;5030305;28;20647;-71
2023/12/28 08:17:23;;;;;;;10.95;3.55;;;11.20;99.90;;;;;;5031633;28;20571;-71
2023/12/28 08:19:50;;;;;;;8.05;2.50;;;11.20;99.90;;;;;;5032972;28;20208;-73
2023/12/28 08:22:18;;;;;;;13.00;3.50;;;11.20;99.90;;;;;;5029476;28;20578;-70
2023/12/28 08:24:47;;;;;;;5.97;2.22;;;11.20;99.90;;;;;;5035756;28;20205;-74
2023/12/28 08:27:14;;;;;;;7.65;2.58;;;11.20;99.90;;;;;;5029791;28;20678;-72
2023/12/28 08:29:42;;;;;;;11.18;2.58;;;11.30;99.90;;;;;;5033454;28;20205;-72
2023/12/28 08:32:10;;;;;;;9.38;2.83;;;11.30;99.90;;;;;;5035192;28;20216;-73
2023/12/28 08:34:37;;;;;;;7.65;3.85;;;11.30;99.90;;;;;;5027780;28;20201;-72
2023/12/28 08:37:04;;;;;;;8.25;2.90;;;11.40;99.90;;;;;;5027897;28;20221;-73
2023/12/28 08:39:31;;;;;;;9.68;2.83;;;11.40;99.90;;;;;;5032455;28;20213;-71
2023/12/28 08:41:59;;;;;;;10.32;3.30;;;11.50;99.90;;;;;;5035446;28;20228;-72
2023/12/28 08:44:26;;;;;;;10.20;3.10;;;11.50;99.90;;;;;;5031734;28;20263;-71
2023/12/28 08:46:53;;;;;;;13.30;4.20;;;11.50;99.90;;;;;;5031823;28;20737;-71
2023/12/28 08:49:22;;;;;;;11.63;2.72;;;11.40;99.90;;;;;;5027878;28;20651;-72
2023/12/28 08:51:49;;;;;;;5.90;2.70;;;11.50;99.90;;;;;;5032720;28;20205;-72
2023/12/28 08:54:16;;;;;;;8.80;3.22;;;11.50;99.90;;;;;;5035514;28;20266;-72
2023/12/28 08:56:43;;;;;;;9.23;3.85;;;11.60;99.90;;;;;;5031031;28;20228;-71
2023/12/28 08:59:12;;;;;;;9.57;2.42;;;11.60;99.90;;;;;;5033911;28;20244;-71
2023/12/28 09:01:39;;;;;;;13.45;2.85;;;11.70;99.90;;;;;;5032020;28;20204;-72
2023/12/28 09:04:05;;;;;;;11.57;3.00;;;11.80;99.90;;;;;;5031505;28;20655;-73
2023/12/28 09:06:32;;;;;;;13.73;3.50;;;11.90;99.90;;;;;;5027307;28;20363;-72
2023/12/28 09:09:00;;;;;;;12.93;3.78;;;11.90;99.90;;;;;;5036538;28;20279;-72
2023/12/28 09:11:27;;;;;;;9.40;3.08;;;11.90;99.90;;;;;;5032637;28;20208;-70
2023/12/28 09:13:54;;;;;;;7.55;2.05;;;11.80;99.90;;;;;;5028821;28;20205;-72
2023/12/28 09:16:23;;;;;;;5.80;3.05;;;11.90;99.90;;;;;;5030565;28;20209;-73
2023/12/28 09:18:50;;;;;;;8.82;3.25;;;11.80;99.90;;;;;;5026927;28;20283;-73
2023/12/28 09:21:18;;;;;;;9.63;2.53;;;11.90;99.90;;;;;;5027991;28;20201;-71
2023/12/28 09:23:45;;;;;;;10.32;2.58;;;11.90;99.90;;;;;;5035936;28;20208;-73
2023/12/28 09:26:12;;;;;;;7.90;2.70;;;11.80;99.90;;;;;;5026141;28;20240;-74
2023/12/28 09:28:40;;;;;;;7.55;3.08;;;11.80;99.90;;;;;;5032978;28;20208;-71
2023/12/28 09:31:07;;;;;;;12.57;2.65;;;11.80;99.90;;;;;;5033083;28;20215;-73
2023/12/28 09:33:36;;;;;;;8.45;2.42;;;11.90;99.90;;;;;;5029861;28;20520;-73
2023/12/28 09:36:04;;;;;;;10.35;3.47;;;12.00;99.90;;;;;;5029922;28;20237;-72
2023/12/28 09:38:31;;;;;;;8.65;2.85;;;12.00;99.90;;;;;;5032080;28;20564;-74
2023/12/28 09:41:03;;;;;;;11.68;3.40;;;11.90;99.90;;;;;;5033829;28;22274;-73
2023/12/28 09:43:37;;;;;;;5.35;2.50;;;12.10;99.90;;;;;;5030250;28;20255;-73
2023/12/28 09:46:09;;;;;;;11.05;3.55;;;12.30;99.90;;;;;;5027337;28;20207;-72
2023/12/28 09:48:38;;;;;;;13.23;2.83;;;12.30;99.90;;;;;;5031013;28;20284;-73
2023/12/28 09:51:05;;;;;;;10.30;2.40;;;12.50;99.90;;;;;;5026801;28;20205;-72
2023/12/28 09:53:33;;;;;;;7.07;2.60;;;12.70;99.90;;;;;;5029921;28;20213;-73
2023/12/28 09:56:02;;;;;;;11.20;3.00;;;12.50;99.90;;;;;;5034020;28;20263;-71
2023/12/28 09:58:32;;;;;;;13.30;2.95;;;12.40;99.90;;;;;;5033473;28;20235;-73
2023/12/28 10:01:00;;;;;;;7.07;2.42;;;12.30;99.90;;;;;;5030726;28;20281;-73
2023/12/28 10:03:27;;;;;;;8.88;2.22;;;12.20;99.90;;;;;;5032716;28;20201;-72
2023/12/28 10:05:56;;;;;;;8.23;3.47;;;12.10;99.90;;;;;;5029588;28;20212;-71
2023/12/28 10:08:23;;;;;;;9.75;3.08;;;12.10;99.90;;;;;;5031878;28;20220;-74
2023/12/28 10:10:53;;;;;;;14.30;3.65;;;12.10;99.90;;;;;;5025745;28;20207;-73
2023/12/28 10:13:21;;;;;;;13.18;2.97;;;12.10;99.90;;;;;;5038482;28;20299;-72
2023/12/28 10:15:49;;;;;;;10.40;3.20;;;12.00;99.90;;;;;;5031016;28;20238;-72
2023/12/28 10:18:19;;;;;;;11.75;3.70;;;12.10;99.90;;;;;;5032684;28;20231;-73
2023/12/28 10:20:50;;;;;;;16.15;4.85;;;12.20;99.90;;;;;;5035381;28;20322;-72
2023/12/28 10:23:18;;;;;;;10.50;3.33;;;12.20;99.90;;;;;;5039918;28;20270;-72
2023/12/28 10:25:45;;;;;;;11.35;2.95;;;12.20;99.90;;;;;;5032674;28;20204;-72
2023/12/28 10:28:12;;;;;;;15.82;4.07;;;12.10;99.90;;;;;;5031858;28;20228;-71
2023/12/28 10:30:39;;;;;;;14.18;3.45;;;12.10;99.90;;;;;;5033089;28;20197;-73
2023/12/28 10:33:07;;;;;;;13.38;3.35;;;12.00;99.90;;;;;;5036127;28;20199;-72
2023/12/28 10:35:34;;;;;;;15.75;4.35;;;11.90;99.90;;;;;;5036843;28;20201;-73
2023/12/28 10:38:03;;;;;;;25.38;3.95;;;11.80;99.90;;;;;;5031534;28;20298;-72
2023/12/28 10:40:32;;;;;;;16.65;2.90;;;11.80;99.90;;;;;;5032101;28;20200;-72
2023/12/28 10:43:01;;;;;;;12.80;3.10;;;11.90;99.90;;;;;;5033977;28;20636;-72
2023/12/28 10:45:31;;;;;;;13.48;3.50;;;11.80;99.90;;;;;;5034006;28;20197;-71
2023/12/28 10:48:07;;;;;;;14.43;3.60;;;11.90;99.90;;;;;;5024428;28;20703;-73
2023/12/28 10:50:40;;;;;;;15.40;4.68;;;11.90;99.90;;;;;;5033395;28;20231;-72
2023/12/28 10:53:19;;;;;;;11.35;3.08;;;11.90;99.90;;;;;;5027947;28;20258;-73
2023/12/28 10:55:55;;;;;;;11.50;4.95;;;11.90;99.90;;;;;;5032210;28;20204;-74
2023/12/28 10:58:32;;;;;;;6.00;3.80;;;11.90;99.90;;;;;;5014614;28;20656;-72
2023/12/28 11:01:03;;;;;;;19.35;5.45;;;11.90;99.90;;;;;;5029883;28;20204;-74
2023/12/28 11:03:35;;;;;;;13.10;3.58;;;12.00;99.90;;;;;;5033635;28;20615;-73
2023/12/28 11:06:05;;;;;;;15.98;5.50;;;11.90;99.90;;;;;;5030833;28;20207;-74
2023/12/28 11:08:33;;;;;;;17.60;3.95;;;11.90;99.90;;;;;;5028848;28;20312;-72
2023/12/28 11:11:03;;;;;;;12.60;3.67;;;12.10;99.90;;;;;;5032690;28;20212;-74
2023/12/28 11:13:33;;;;;;;13.82;3.47;;;12.10;99.90;;;;;;5034371;28;20288;-72
2023/12/28 11:16:01;;;;;;;14.05;2.92;;;12.10;99.90;;;;;;5031059;28;20296;-72
2023/12/28 11:18:29;;;;;;;9.85;2.58;;;12.20;99.90;;;;;;5031302;28;20224;-72
2023/12/28 11:20:57;;;;;;;14.68;3.30;;;12.10;99.90;;;;;;5032541;28;20204;-73
2023/12/28 11:23:25;;;;;;;9.40;3.20;;;12.10;99.90;;;;;;5036649;28;20612;-71
2023/12/28 11:25:52;;;;;;;14.10;3.20;;;12.10;99.90;;;;;;5021525;28;20202;-72
2023/12/28 11:28:21;;;;;;;14.52;5.10;;;12.20;99.90;;;;;;5026106;28;20240;-74
2023/12/28 11:30:48;;;;;;;17.30;3.70;;;12.20;99.90;;;;;;5024868;28;20312;-73
2023/12/28 11:33:16;;;;;;;18.90;5.45;;;12.30;99.90;;;;;;5035101;28;20250;-72
2023/12/28 11:35:43;;;;;;;14.50;4.43;;;12.20;99.90;;;;;;5043402;28;20567;-71
2023/12/28 11:38:13;;;;;;;10.27;2.55;;;12.20;99.90;;;;;;5024574;28;20667;-74
2023/12/28 11:40:46;;;;;;;14.40;4.20;;;12.20;99.90;;;;;;5031068;28;20216;-73
2023/12/28 11:43:20;;;;;;;15.70;3.53;;;12.30;99.90;;;;;;5026789;28;20209;-72
2023/12/28 11:45:53;;;;;;;12.07;3.97;;;12.30;99.90;;;;;;5020753;28;20724;-72
2023/12/28 11:48:27;;;;;;;10.10;3.95;;;12.20;99.90;;;;;;5030297;28;20250;-75
2023/12/28 11:50:59;;;;;;;12.93;4.13;;;12.10;99.90;;;;;;5025439;28;20209;-72
2023/12/28 11:53:27;;;;;;;7.95;3.25;;;12.10;99.90;;;;;;5027099;28;20200;-74
2023/12/28 11:56:00;;;;;;;10.45;4.40;;;12.00;99.90;;;;;;5028121;28;20545;-73
2023/12/28 11:58:29;;;;;;;14.50;3.30;;;12.00;99.90;;;;;;5021594;28;20230;-74
2023/12/28 12:00:56;;;;;;;17.92;4.20;;;12.00;99.90;;;;;;5029189;28;20248;-73
2023/12/28 12:03:26;;;;;;;7.55;3.17;;;11.90;99.90;;;;;;5033594;28;20196;-73
2023/12/28 12:05:54;;;;;;;12.23;4.32;;;11.90;99.90;;;;;;5024788;28;20204;-72
2023/12/28 12:08:21;;;;;;;9.32;3.47;;;11.90;99.90;;;;;;5029846;28;20224;-71
2023/12/28 12:10:48;;;;;;;15.80;4.35;;;11.90;99.90;;;;;;5022675;28;20275;-73
2023/12/28 12:13:16;;;;;;;14.52;3.92;;;11.90;99.90;;;;;;5033943;28;20510;-75
2023/12/28 12:15:44;;;;;;;15.73;3.25;;;11.90;99.90;;;;;;5025084;28;20241;-71
2023/12/28 12:18:12;;;;;;;20.02;4.30;;;11.90;99.90;;;;;;5022787;28;20561;-72
2023/12/28 12:20:39;;;;;;;15.68;4.18;;;12.00;99.90;;;;;;5030642;28;20204;-72
2023/12/28 12:23:06;;;;;;;9.02;2.80;;;12.00;99.90;;;;;;5032567;28;20196;-72
2023/12/28 12:25:32;;;;;;;16.02;3.72;;;12.00;99.90;;;;;;5032379;28;20258;-73
2023/12/28 12:27:59;;;;;;;15.27;3.90;;;12.00;99.90;;;;;;5025839;28;20225;-74
2023/12/28 12:30:26;;;;;;;9.90;3.45;;;12.00;99.90;;;;;;5032721;28;20200;-72
2023/12/28 12:32:55;;;;;;;12.63;3.75;;;12.00;99.90;;;;;;5026316;28;20550;-74
2023/12/28 12:35:22;;;;;;;13.10;3.10;;;12.00;99.90;;;;;;5034918;28;20203;-73
2023/12/28 12:37:50;;;;;;;13.40;3.35;;;12.00;99.90;;;;;;5025387;28;20229;-71
2023/12/28 12:40:20;;;;;;;12.55;4.43;;;12.00;99.90;;;;;;5026156;28;20201;-72
2023/12/28 12:42:54;;;;;;;17.42;3.28;;;12.00;99.90;;;;;;5024237;28;20197;-72
2023/12/28 12:45:21;;;;;;;16.58;3.75;;;12.00;99.90;;;;;;5032441;28;20211;-71
2023/12/28 12:47:49;;;;;;;15.23;3.83;;;12.00;99.90;;;;;;5020988;28;20232;-73
2023/12/28 12:50:19;;;;;;;14.65;3.88;;;12.00;99.90;;;;;;5027229;28;20212;-72
2023/12/28 12:52:46;;;;;;;12.48;3.42;;;12.00;99.90;;;;;;5026070;28;20209;-72
2023/12/28 12:55:13;;;;;;;15.35;4.43;;;12.00;99.90;;;;;;5027698;28;20213;-73